createdAt,value
2023-03-13T00:00:33.030Z,7.10
2023-03-13T00:03:17.782Z,6.80
2023-03-13T00:05:45.545Z,6.10
2023-03-13T00:08:13.312Z,7.40
2023-03-13T00:10:40.972Z,6.80
2023-03-13T00:13:08.634Z,7.30
2023-03-13T00:15:36.398Z,7.10
2023-03-13T00:18:04.161Z,7.40
2023-03-13T00:20:31.821Z,7.70
2023-03-13T00:22:59.484Z,6.70
2023-03-13T00:25:27.349Z,5.60
2023-03-13T00:27:55.017Z,8.00
2023-03-13T00:30:22.779Z,5.80
2023-03-13T00:32:50.586Z,6.10
2023-03-13T00:35:18.506Z,6.10
2023-03-13T00:37:46.271Z,5.20
2023-03-13T00:40:14.048Z,4.80
2023-03-13T00:42:41.804Z,3.20
2023-03-13T00:45:09.563Z,3.60
2023-03-13T00:47:37.230Z,3.70
2023-03-13T00:50:04.887Z,3.50
2023-03-13T00:52:32.661Z,3.40
2023-03-13T00:55:00.415Z,3.90
2023-03-13T00:57:28.072Z,4.20
2023-03-13T00:59:55.735Z,3.30
2023-03-13T01:02:23.616Z,3.80
2023-03-13T01:04:51.574Z,2.80
2023-03-13T01:07:19.235Z,4.10
2023-03-13T01:09:47.005Z,4.20
2023-03-13T01:12:14.670Z,4.00
2023-03-13T01:14:42.327Z,3.80
2023-03-13T01:17:10.000Z,3.20
2023-03-13T01:19:37.755Z,3.30
2023-03-13T01:22:05.519Z,3.30
2023-03-13T01:24:33.181Z,3.70
2023-03-13T01:27:01.152Z,4.20
2023-03-13T01:29:28.814Z,3.40
2023-03-13T01:31:56.581Z,2.60
2023-03-13T01:34:24.241Z,3.90
2023-03-13T01:36:52.509Z,3.60
2023-03-13T01:39:20.295Z,3.10
2023-03-13T01:41:48.049Z,2.80
2023-03-13T01:44:15.804Z,3.70
2023-03-13T01:46:43.593Z,3.80
2023-03-13T01:49:11.379Z,3.00
2023-03-13T01:51:39.310Z,3.30
2023-03-13T01:54:07.071Z,4.40
2023-03-13T01:56:34.839Z,4.40
2023-03-13T01:59:02.596Z,4.40
2023-03-13T02:01:30.387Z,4.80
2023-03-13T02:03:58.329Z,5.10
2023-03-13T02:06:26.094Z,5.60
2023-03-13T02:08:53.855Z,6.40
2023-03-13T02:11:21.625Z,5.10
2023-03-13T02:13:49.295Z,8.90
2023-03-13T02:16:17.185Z,6.40
2023-03-13T02:18:44.908Z,8.50
2023-03-13T02:21:12.573Z,7.60
2023-03-13T02:23:40.540Z,6.40
2023-03-13T02:26:08.302Z,5.20
2023-03-13T02:28:36.068Z,6.50
2023-03-13T02:31:03.765Z,7.00
2023-03-13T02:33:31.496Z,6.50
2023-03-13T02:35:59.192Z,5.70
2023-03-13T02:38:27.018Z,4.20
2023-03-13T02:40:55.194Z,3.80
2023-03-13T02:43:23.077Z,4.60
2023-03-13T02:45:50.930Z,4.00
2023-03-13T02:48:18.594Z,3.50
2023-03-13T02:50:46.263Z,3.40
2023-03-13T02:53:14.021Z,3.70
2023-03-13T02:55:41.679Z,4.00
2023-03-13T02:58:09.343Z,3.50
2023-03-13T03:00:37.034Z,3.20
2023-03-13T03:03:04.783Z,2.90
2023-03-13T03:05:32.453Z,4.00
2023-03-13T03:08:00.195Z,3.60
2023-03-13T03:10:27.972Z,3.50
2023-03-13T03:12:55.722Z,4.00
2023-03-13T03:15:24.005Z,3.80
2023-03-13T03:17:51.772Z,3.40
2023-03-13T03:20:19.447Z,3.30
2023-03-13T03:22:47.190Z,3.10
2023-03-13T03:25:14.845Z,3.70
2023-03-13T03:27:42.507Z,3.90
2023-03-13T03:30:10.371Z,3.30
2023-03-13T03:32:38.115Z,3.50
2023-03-13T03:35:05.898Z,4.20
2023-03-13T03:37:33.559Z,4.60
2023-03-13T03:40:01.221Z,4.40
2023-03-13T03:42:28.987Z,6.20
2023-03-13T03:44:56.745Z,5.90
2023-03-13T03:47:24.564Z,6.70
2023-03-13T03:49:52.276Z,8.10
2023-03-13T03:52:20.039Z,5.90
2023-03-13T03:54:47.708Z,5.30
2023-03-13T03:57:15.364Z,5.10
2023-03-13T03:59:43.047Z,5.00
2023-03-13T04:02:10.862Z,39.40
2023-03-13T04:04:38.665Z,36.40
2023-03-13T04:07:06.424Z,22.40
2023-03-13T04:09:34.117Z,42.00
2023-03-13T04:12:01.850Z,27.20
2023-03-13T04:14:29.482Z,52.80
2023-03-13T04:16:57.216Z,43.70
2023-03-13T04:19:24.947Z,15.00
2023-03-13T04:21:52.704Z,34.90
2023-03-13T04:24:20.469Z,26.40
2023-03-13T04:26:48.128Z,32.40
2023-03-13T04:29:15.907Z,29.10
2023-03-13T04:31:43.655Z,28.80
2023-03-13T04:34:11.420Z,16.50
2023-03-13T04:36:39.187Z,32.30
2023-03-13T04:39:06.846Z,24.50
2023-03-13T04:41:34.610Z,7.50
2023-03-13T04:44:02.373Z,8.50
2023-03-13T04:46:30.104Z,7.30
2023-03-13T04:48:57.902Z,5.50
2023-03-13T04:51:25.675Z,5.60
2023-03-13T04:53:53.327Z,7.90
2023-03-13T04:56:26.815Z,5.50
2023-03-13T04:59:00.531Z,4.00
2023-03-13T05:01:28.288Z,4.50
2023-03-13T05:03:56.161Z,5.10
2023-03-13T05:06:23.820Z,4.90
2023-03-13T05:08:51.486Z,19.90
2023-03-13T05:11:19.149Z,12.90
2023-03-13T05:13:46.772Z,11.80
2023-03-13T05:16:14.535Z,12.50
2023-03-13T05:18:42.336Z,7.90
2023-03-13T05:21:10.312Z,11.30
2023-03-13T05:23:38.066Z,6.50
2023-03-13T05:26:05.733Z,13.60
2023-03-13T05:28:33.395Z,18.20
2023-03-13T05:31:01.194Z,24.30
2023-03-13T05:33:29.130Z,7.70
2023-03-13T05:35:56.940Z,8.30
2023-03-13T05:38:25.076Z,5.00
2023-03-13T05:40:52.722Z,5.30
2023-03-13T05:43:20.384Z,5.50
2023-03-13T05:45:48.045Z,5.60
2023-03-13T05:48:15.709Z,5.50
2023-03-13T05:50:43.367Z,5.80
2023-03-13T05:53:11.027Z,7.10
2023-03-13T05:55:38.686Z,5.10
2023-03-13T05:58:06.360Z,6.40
2023-03-13T06:00:34.115Z,3.60
2023-03-13T06:03:01.879Z,5.00
2023-03-13T06:05:29.776Z,7.10
2023-03-13T06:07:57.707Z,10.00
2023-03-13T06:10:25.587Z,5.00
2023-03-13T06:12:54.053Z,4.20
2023-03-13T06:15:21.725Z,17.10
2023-03-13T06:17:49.480Z,17.60
2023-03-13T06:20:17.147Z,5.90
2023-03-13T06:22:44.802Z,10.30
2023-03-13T06:25:12.565Z,8.00
2023-03-13T06:27:40.330Z,5.80
2023-03-13T06:30:07.994Z,8.40
2023-03-13T06:32:35.739Z,46.70
2023-03-13T06:35:04.853Z,24.50
2023-03-13T06:37:32.719Z,30.70
2023-03-13T06:40:00.382Z,24.50
2023-03-13T06:42:28.144Z,9.60
2023-03-13T06:44:55.908Z,7.80
2023-03-13T06:47:23.570Z,5.90
2023-03-13T06:49:51.438Z,4.70
2023-03-13T06:52:20.284Z,5.50
2023-03-13T06:54:48.398Z,5.60
2023-03-13T06:57:16.162Z,4.20
2023-03-13T06:59:43.822Z,5.20
2023-03-13T07:02:11.487Z,3.40
2023-03-13T07:04:43.616Z,7.00
2023-03-13T07:07:25.632Z,8.60
2023-03-13T07:09:57.312Z,4.40
2023-03-13T07:12:25.281Z,6.80
2023-03-13T07:14:52.941Z,8.30
2023-03-13T07:17:20.659Z,4.90
2023-03-13T07:19:48.471Z,4.30
2023-03-13T07:22:16.132Z,6.90
2023-03-13T07:24:43.842Z,8.80
2023-03-13T07:27:11.580Z,7.50
2023-03-13T07:29:39.322Z,4.90
2023-03-13T07:32:07.057Z,5.20
2023-03-13T07:34:34.849Z,5.20
2023-03-13T07:37:02.616Z,5.10
2023-03-13T07:39:30.283Z,8.10
2023-03-13T07:41:57.938Z,8.80
2023-03-13T07:44:25.599Z,6.00
2023-03-13T07:46:53.364Z,4.10
2023-03-13T07:49:21.024Z,9.60
2023-03-13T07:51:51.386Z,10.40
2023-03-13T07:54:19.224Z,5.80
2023-03-13T07:56:47.080Z,9.30
2023-03-13T07:59:14.844Z,6.10
2023-03-13T08:01:42.607Z,5.20
2023-03-13T08:04:10.372Z,5.70
2023-03-13T08:06:39.978Z,12.70
2023-03-13T08:09:07.642Z,12.30
2023-03-13T08:11:35.417Z,14.60
2023-03-13T08:14:03.289Z,11.70
2023-03-13T08:16:31.169Z,6.90
2023-03-13T08:18:59.008Z,10.20
2023-03-13T08:21:26.761Z,5.00
2023-03-13T08:23:54.542Z,19.20
2023-03-13T08:26:22.210Z,4.90
2023-03-13T08:28:49.952Z,4.60
2023-03-13T08:31:17.724Z,11.00
2023-03-13T08:33:45.478Z,5.10
2023-03-13T08:36:13.246Z,4.70
2023-03-13T08:38:43.745Z,5.10
2023-03-13T08:41:12.254Z,12.60
2023-03-13T08:43:39.917Z,3.90
2023-03-13T08:46:07.670Z,6.40
2023-03-13T08:48:35.545Z,9.20
2023-03-13T08:51:03.208Z,4.70
2023-03-13T08:53:30.979Z,3.80
2023-03-13T08:55:58.846Z,7.10
2023-03-13T08:58:26.500Z,5.80
2023-03-13T09:00:54.169Z,3.80
2023-03-13T09:03:21.970Z,5.30
2023-03-13T09:05:55.967Z,5.60
2023-03-13T09:08:24.318Z,4.60
2023-03-13T09:10:51.977Z,4.50
2023-03-13T09:13:19.744Z,3.70
2023-03-13T09:15:47.480Z,4.50
2023-03-13T09:18:15.410Z,6.40
2023-03-13T09:20:43.139Z,3.70
2023-03-13T09:23:10.820Z,15.30
2023-03-13T09:25:38.560Z,6.70
2023-03-13T09:28:06.333Z,24.70
2023-03-13T09:30:34.091Z,11.90
2023-03-13T09:33:01.771Z,33.90
2023-03-13T09:35:29.518Z,15.90
2023-03-13T09:37:57.285Z,8.20
2023-03-13T09:40:24.943Z,12.20
2023-03-13T09:42:52.607Z,6.80
2023-03-13T09:45:20.266Z,5.10
2023-03-13T09:47:48.027Z,5.40
2023-03-13T09:50:15.712Z,5.60
2023-03-13T09:52:44.084Z,4.90
2023-03-13T09:55:11.723Z,3.90
2023-03-13T09:57:39.501Z,3.10
2023-03-13T10:00:12.730Z,4.10
2023-03-13T10:02:40.553Z,4.20
2023-03-13T10:05:08.315Z,5.10
2023-03-13T10:07:36.100Z,3.80
2023-03-13T10:10:06.187Z,4.70
2023-03-13T10:12:35.290Z,4.70
2023-03-13T10:15:02.964Z,4.30
2023-03-13T10:17:30.620Z,3.10
2023-03-13T10:19:59.100Z,5.50
2023-03-13T10:22:27.063Z,3.60
2023-03-13T10:24:54.724Z,3.70
2023-03-13T10:27:22.492Z,4.60
2023-03-13T10:29:50.271Z,3.40
2023-03-13T10:32:18.070Z,3.20
2023-03-13T10:34:45.881Z,3.70
2023-03-13T10:37:13.547Z,3.20
2023-03-13T10:39:41.580Z,3.00
2023-03-13T10:42:10.922Z,2.90
2023-03-13T10:44:39.187Z,2.30
2023-03-13T10:47:06.965Z,2.70
2023-03-13T10:49:34.628Z,3.40
2023-03-13T10:52:02.383Z,2.80
2023-03-13T10:54:30.350Z,2.60
2023-03-13T10:56:58.373Z,2.00
2023-03-13T10:59:26.401Z,2.40
2023-03-13T11:01:54.157Z,2.00
2023-03-13T11:04:21.953Z,2.50
2023-03-13T11:06:49.596Z,1.80
2023-03-13T11:09:17.303Z,2.00
2023-03-13T11:11:45.008Z,1.80
2023-03-13T11:14:12.667Z,2.30
2023-03-13T11:16:40.322Z,2.00
2023-03-13T11:19:08.007Z,1.70
2023-03-13T11:21:35.654Z,1.60
2023-03-13T11:24:03.269Z,1.80
2023-03-13T11:26:31.052Z,2.30
2023-03-13T11:28:58.748Z,2.10
2023-03-13T11:31:26.399Z,2.00
2023-03-13T11:33:57.684Z,2.10
2023-03-13T11:36:28.995Z,2.10
2023-03-13T11:38:56.764Z,3.50
2023-03-13T11:41:24.570Z,2.20
2023-03-13T11:43:52.492Z,2.30
2023-03-13T11:46:20.345Z,1.80
2023-03-13T11:48:48.326Z,1.60
2023-03-13T11:51:20.577Z,2.00
2023-03-13T11:53:48.563Z,1.90
2023-03-13T11:56:16.638Z,2.10
2023-03-13T11:58:44.405Z,1.90
2023-03-13T12:01:12.437Z,2.20
2023-03-13T12:03:40.320Z,2.20
2023-03-13T12:06:15.908Z,2.80
2023-03-13T12:08:46.307Z,2.80
2023-03-13T12:11:13.971Z,2.90
2023-03-13T12:13:41.844Z,3.00
2023-03-13T12:16:09.536Z,2.40
2023-03-13T12:18:38.693Z,2.10
2023-03-13T12:21:06.359Z,2.40
2023-03-13T12:23:34.594Z,2.10
2023-03-13T12:26:02.400Z,2.90
2023-03-13T12:28:30.257Z,1.50
2023-03-13T12:30:58.190Z,2.60
2023-03-13T12:33:26.819Z,3.50
2023-03-13T12:35:54.616Z,3.50
2023-03-13T12:38:22.552Z,3.20
2023-03-13T12:40:50.220Z,3.30
2023-03-13T12:43:17.847Z,2.10
2023-03-13T12:45:45.729Z,2.00
2023-03-13T12:48:13.750Z,1.70
2023-03-13T12:50:41.579Z,1.70
2023-03-13T12:53:09.344Z,1.60
2023-03-13T12:55:37.124Z,1.60
2023-03-13T12:58:04.973Z,1.50
2023-03-13T13:00:34.485Z,1.70
2023-03-13T13:03:02.348Z,1.20
2023-03-13T13:05:30.109Z,1.50
2023-03-13T13:07:57.974Z,1.60
2023-03-13T13:10:26.560Z,2.00
2023-03-13T13:12:54.216Z,1.40
2023-03-13T13:15:21.873Z,2.00
2023-03-13T13:17:49.743Z,1.80
2023-03-13T13:20:17.402Z,1.40
2023-03-13T13:22:45.169Z,1.50
2023-03-13T13:25:12.838Z,3.20
2023-03-13T13:27:40.697Z,6.30
2023-03-13T13:30:08.356Z,9.50
2023-03-13T13:32:36.185Z,6.00
2023-03-13T13:35:06.619Z,4.30
2023-03-13T13:37:34.414Z,3.60
2023-03-13T13:40:02.130Z,3.30
2023-03-13T13:42:30.470Z,3.10
2023-03-13T13:44:58.219Z,8.40
2023-03-13T13:47:25.981Z,10.60
2023-03-13T13:49:54.691Z,6.10
2023-03-13T13:52:22.431Z,7.40
2023-03-13T13:54:50.606Z,5.30
2023-03-13T13:57:18.368Z,4.40
2023-03-13T13:59:46.140Z,4.60
2023-03-13T14:02:13.870Z,3.50
2023-03-13T14:04:41.800Z,3.50
2023-03-13T14:07:09.529Z,2.30
2023-03-13T14:09:37.548Z,2.80
2023-03-13T14:12:05.364Z,5.20
2023-03-13T14:14:32.988Z,3.60
2023-03-13T14:17:00.708Z,3.80
2023-03-13T14:19:28.718Z,3.10
2023-03-13T14:21:56.347Z,3.90
2023-03-13T14:24:24.203Z,2.70
2023-03-13T14:26:51.869Z,2.50
2023-03-13T14:29:20.865Z,2.70
2023-03-13T14:31:48.554Z,2.70
2023-03-13T14:34:16.214Z,3.50
2023-03-13T14:36:43.826Z,5.20
2023-03-13T14:39:11.481Z,4.20
2023-03-13T14:41:39.121Z,4.60
2023-03-13T14:44:06.833Z,4.70
2023-03-13T14:46:34.509Z,6.10
2023-03-13T14:49:02.212Z,2.70
2023-03-13T14:51:29.932Z,3.00
2023-03-13T14:53:57.619Z,2.80
2023-03-13T14:56:25.253Z,2.70
2023-03-13T14:58:52.887Z,2.30
2023-03-13T15:01:20.588Z,2.60
2023-03-13T15:03:48.352Z,3.20
2023-03-13T15:06:16.023Z,4.80
2023-03-13T15:08:43.626Z,4.50
2023-03-13T15:11:11.282Z,4.00
2023-03-13T15:13:39.037Z,4.40
2023-03-13T15:16:06.982Z,4.00
2023-03-13T15:18:34.701Z,3.10
2023-03-13T15:21:02.459Z,3.70
2023-03-13T15:23:30.525Z,3.40
2023-03-13T15:25:58.288Z,3.80
2023-03-13T15:28:25.963Z,3.20
2023-03-13T15:30:53.828Z,2.70
2023-03-13T15:33:21.741Z,3.10
2023-03-13T15:35:49.474Z,3.00
2023-03-13T15:38:17.210Z,3.00
2023-03-13T15:40:44.999Z,2.70
2023-03-13T15:43:12.741Z,3.20
2023-03-13T15:45:40.507Z,3.80
2023-03-13T15:48:08.163Z,4.20
2023-03-13T15:50:36.077Z,8.20
2023-03-13T15:53:04.211Z,6.10
2023-03-13T15:55:31.968Z,6.70
2023-03-13T15:57:59.742Z,5.00
2023-03-13T16:00:27.497Z,7.10
2023-03-13T16:02:55.156Z,8.20
2023-03-13T16:05:22.921Z,9.90
2023-03-13T16:07:50.729Z,5.40
2023-03-13T16:10:18.444Z,14.20
2023-03-13T16:12:46.212Z,12.80
2023-03-13T16:15:13.876Z,12.30
2023-03-13T16:17:41.641Z,9.20
2023-03-13T16:20:10.737Z,6.10
2023-03-13T16:22:38.600Z,7.90
2023-03-13T16:25:07.387Z,23.80
2023-03-13T16:27:35.261Z,11.10
2023-03-13T16:30:04.429Z,21.50
2023-03-13T16:32:32.373Z,8.90
2023-03-13T16:35:00.128Z,7.70
2023-03-13T16:37:27.949Z,9.40
2023-03-13T16:39:55.609Z,19.40
2023-03-13T16:42:23.278Z,13.40
2023-03-13T16:44:51.034Z,17.50
2023-03-13T16:47:18.840Z,53.70
2023-03-13T16:49:47.680Z,23.50
2023-03-13T16:52:15.680Z,23.30
2023-03-13T16:54:43.423Z,31.60
2023-03-13T16:57:11.208Z,24.90
2023-03-13T16:59:38.950Z,11.90
2023-03-13T17:02:06.716Z,11.40
2023-03-13T17:04:34.501Z,9.50
2023-03-13T17:07:02.344Z,15.90
2023-03-13T17:09:30.009Z,9.30
2023-03-13T17:11:57.667Z,13.10
2023-03-13T17:14:25.326Z,11.60
2023-03-13T17:16:53.090Z,10.90
2023-03-13T17:19:21.369Z,11.00
2023-03-13T17:21:49.444Z,11.00
2023-03-13T17:24:17.510Z,9.60
2023-03-13T17:26:45.177Z,10.70
2023-03-13T17:29:12.933Z,9.90
2023-03-13T17:31:41.207Z,9.60
2023-03-13T17:34:08.973Z,10.10
2023-03-13T17:36:36.742Z,8.50
2023-03-13T17:39:04.708Z,8.60
2023-03-13T17:41:32.368Z,8.30
2023-03-13T17:44:00.332Z,7.10
2023-03-13T17:46:28.021Z,8.30
2023-03-13T17:48:55.758Z,9.30
2023-03-13T17:51:23.519Z,8.10
2023-03-13T17:53:51.199Z,11.50
2023-03-13T17:56:18.958Z,8.70
2023-03-13T17:58:46.719Z,13.30
2023-03-13T18:01:14.906Z,10.90
2023-03-13T18:03:42.661Z,11.70
2023-03-13T18:06:10.316Z,33.60
2023-03-13T18:08:38.081Z,22.40
2023-03-13T18:11:05.739Z,11.60
2023-03-13T18:13:33.407Z,22.10
2023-03-13T18:16:01.067Z,13.00
2023-03-13T18:18:28.832Z,46.10
2023-03-13T18:20:56.493Z,20.00
2023-03-13T18:23:24.117Z,26.20
2023-03-13T18:25:51.816Z,11.80
2023-03-13T18:28:19.578Z,11.40
2023-03-13T18:30:47.341Z,9.70
2023-03-13T18:33:15.005Z,10.40
2023-03-13T18:35:43.365Z,9.20
2023-03-13T18:38:14.116Z,9.60
2023-03-13T18:40:41.980Z,8.20
2023-03-13T18:43:09.642Z,8.60
2023-03-13T18:45:38.445Z,7.20
2023-03-13T18:48:06.169Z,9.10
2023-03-13T18:50:33.956Z,8.20
2023-03-13T18:53:02.029Z,6.50
2023-03-13T18:55:29.794Z,11.60
2023-03-13T18:57:57.570Z,10.40
2023-03-13T19:00:25.409Z,9.30
2023-03-13T19:02:53.393Z,8.20
2023-03-13T19:05:21.169Z,8.30
2023-03-13T19:07:48.926Z,8.00
2023-03-13T19:10:16.723Z,14.30
2023-03-13T19:12:44.457Z,8.50
2023-03-13T19:15:12.728Z,11.60
2023-03-13T19:17:40.390Z,11.20
2023-03-13T19:20:08.164Z,11.20
2023-03-13T19:22:36.064Z,8.60
2023-03-13T19:25:04.112Z,9.10
2023-03-13T19:27:31.868Z,11.20
2023-03-13T19:29:59.625Z,9.10
2023-03-13T19:32:27.414Z,9.10
2023-03-13T19:34:55.152Z,11.50
2023-03-13T19:37:22.810Z,8.80
2023-03-13T19:39:50.986Z,9.20
2023-03-13T19:42:18.642Z,7.60
2023-03-13T19:44:46.410Z,8.50
2023-03-13T19:47:14.782Z,7.40
2023-03-13T19:49:42.498Z,8.40
2023-03-13T19:52:10.124Z,7.70
2023-03-13T19:54:37.883Z,7.90
2023-03-13T19:57:05.531Z,7.10
2023-03-13T19:59:35.445Z,6.30
2023-03-13T20:02:04.491Z,7.40
2023-03-13T20:04:33.439Z,5.80
2023-03-13T20:07:02.528Z,7.60
2023-03-13T20:09:30.197Z,7.50
2023-03-13T20:11:57.953Z,5.90
2023-03-13T20:14:25.718Z,5.70
2023-03-13T20:16:53.380Z,5.60
2023-03-13T20:19:22.886Z,5.10
2023-03-13T20:21:50.659Z,4.90
2023-03-13T20:24:18.418Z,5.40
2023-03-13T20:26:46.085Z,4.40
2023-03-13T20:29:13.844Z,5.50
2023-03-13T20:31:41.504Z,5.00
2023-03-13T20:34:09.294Z,4.40
2023-03-13T20:36:37.033Z,4.60
2023-03-13T20:39:05.828Z,4.80
2023-03-13T20:41:33.793Z,4.60
2023-03-13T20:44:01.450Z,4.70
2023-03-13T20:46:29.286Z,4.70
2023-03-13T20:48:58.922Z,4.00
2023-03-13T20:51:27.933Z,4.20
2023-03-13T20:53:55.577Z,4.60
2023-03-13T20:56:23.344Z,4.40
2023-03-13T20:58:50.999Z,5.00
2023-03-13T21:01:19.757Z,4.00
2023-03-13T21:03:47.663Z,5.50
2023-03-13T21:06:15.435Z,5.50
2023-03-13T21:08:43.189Z,9.30
2023-03-13T21:11:10.845Z,10.60
2023-03-13T21:13:38.504Z,8.60
2023-03-13T21:16:06.187Z,6.60
2023-03-13T21:18:33.805Z,6.60
2023-03-13T21:21:01.437Z,6.80
2023-03-13T21:23:29.151Z,6.60
2023-03-13T21:25:56.813Z,5.00
2023-03-13T21:28:24.579Z,4.90
2023-03-13T21:30:52.241Z,4.70
2023-03-13T21:33:19.897Z,4.40
2023-03-13T21:35:47.608Z,4.70
2023-03-13T21:38:15.424Z,4.40
2023-03-13T21:40:43.093Z,5.10
2023-03-13T21:43:10.751Z,5.30
2023-03-13T21:45:38.514Z,5.20
2023-03-13T21:48:06.181Z,4.30
2023-03-13T21:50:33.949Z,4.50
2023-03-13T21:53:01.704Z,4.30
2023-03-13T21:55:29.471Z,3.90
2023-03-13T21:57:57.165Z,4.10
2023-03-13T22:00:24.890Z,4.00
2023-03-13T22:02:52.675Z,4.00
2023-03-13T22:05:20.422Z,3.30
2023-03-13T22:07:48.086Z,4.00
2023-03-13T22:10:15.846Z,3.40
2023-03-13T22:12:43.504Z,3.60
2023-03-13T22:15:11.189Z,3.70
2023-03-13T22:17:38.933Z,3.80
2023-03-13T22:20:06.696Z,3.90
2023-03-13T22:22:34.467Z,2.90
2023-03-13T22:25:02.225Z,3.20
2023-03-13T22:27:29.989Z,3.60
2023-03-13T22:29:57.752Z,5.00
2023-03-13T22:32:26.070Z,4.80
2023-03-13T22:34:53.838Z,6.10
2023-03-13T22:37:22.478Z,5.20
2023-03-13T22:39:54.137Z,7.10
2023-03-13T22:42:21.794Z,5.50
2023-03-13T22:44:49.457Z,6.20
2023-03-13T22:47:17.237Z,7.20
2023-03-13T22:49:44.983Z,5.50
2023-03-13T22:52:12.750Z,7.00
2023-03-13T22:54:40.367Z,7.80
2023-03-13T22:57:08.084Z,8.50
2023-03-13T22:59:36.261Z,7.40
2023-03-13T23:02:04.009Z,6.70
2023-03-13T23:04:31.671Z,6.10
2023-03-13T23:06:59.444Z,4.70
2023-03-13T23:09:27.100Z,6.00
2023-03-13T23:11:54.760Z,6.30
2023-03-13T23:14:22.423Z,6.50
2023-03-13T23:16:50.328Z,5.70
2023-03-13T23:19:18.055Z,5.20
2023-03-13T23:21:45.716Z,5.40
2023-03-13T23:24:13.384Z,4.90
2023-03-13T23:26:41.139Z,5.80
2023-03-13T23:29:08.913Z,5.30
2023-03-13T23:31:36.668Z,5.70
2023-03-13T23:34:04.431Z,5.20
2023-03-13T23:36:32.115Z,4.80
2023-03-13T23:39:00.062Z,4.50
2023-03-13T23:41:27.722Z,4.70
2023-03-13T23:43:55.504Z,5.60
2023-03-13T23:46:23.381Z,5.20
2023-03-13T23:48:51.116Z,4.30
2023-03-13T23:51:18.781Z,5.00
2023-03-13T23:53:46.412Z,3.90
2023-03-13T23:56:14.206Z,5.50
2023-03-13T23:58:41.973Z,4.80
